Time;durP1;ratioP1;P1;durP2;ratioP2;P2;SDS_P1;SDS_P2;PMS_P1;PMS_P2;Temp;Humidity;BMP_temperature;BMP_pressure;BME280_temperature;BME280_humidity;BME280_pressure;Samples;Min_cycle;Max_cycle;Signal;HPM_P1;HPM_P2
2024/04/20 00:01:26;;;;;;;5.93;3.22;;;4.30;99.90;;;;;;7600804;19;20033;-79
2024/04/20 00:03:57;;;;;;;5.78;3.70;;;4.30;99.90;;;;;;7590426;19;20020;-78
2024/04/20 00:06:28;;;;;;;5.45;3.47;;;4.40;99.90;;;;;;7584959;19;20022;-78
2024/04/20 00:09:00;;;;;;;6.97;3.03;;;4.40;99.90;;;;;;7594214;19;20011;-78
2024/04/20 00:11:31;;;;;;;7.32;3.92;;;4.40;99.90;;;;;;7596230;19;21925;-78
2024/04/20 00:14:02;;;;;;;4.50;3.50;;;4.40;99.90;;;;;;7569389;19;20026;-78
2024/04/20 00:16:33;;;;;;;6.57;4.03;;;4.40;99.90;;;;;;7588984;19;20022;-78
2024/04/20 00:19:04;;;;;;;6.95;3.88;;;4.40;99.90;;;;;;7590731;19;20019;-79
2024/04/20 00:21:35;;;;;;;6.72;3.22;;;4.40;99.90;;;;;;7591918;19;20118;-78
2024/04/20 00:24:06;;;;;;;9.63;3.70;;;4.40;99.90;;;;;;7576081;19;20022;-78
2024/04/20 00:26:37;;;;;;;6.45;3.55;;;4.50;99.90;;;;;;7581670;19;20026;-78
2024/04/20 00:29:08;;;;;;;5.32;3.05;;;4.40;99.90;;;;;;7583573;19;20014;-78
2024/04/20 00:31:39;;;;;;;5.25;3.22;;;4.40;99.90;;;;;;7592606;19;20026;-79
2024/04/20 00:34:10;;;;;;;5.03;3.05;;;4.30;99.90;;;;;;7587031;19;20029;-77
2024/04/20 00:36:41;;;;;;;6.88;3.22;;;4.20;99.90;;;;;;7582768;19;20507;-78
2024/04/20 00:39:12;;;;;;;3.60;2.80;;;4.20;99.90;;;;;;7578643;19;20007;-77
2024/04/20 00:41:47;;;;;;;5.05;2.30;;;4.20;99.90;;;;;;7578457;19;20061;-77
2024/04/20 00:44:19;;;;;;;4.35;2.60;;;4.10;99.90;;;;;;7580970;19;20018;-77
2024/04/20 00:46:54;;;;;;;3.00;2.17;;;4.10;99.90;;;;;;7576665;19;20006;-77
2024/04/20 00:49:26;;;;;;;4.18;2.10;;;4.00;99.90;;;;;;7589680;19;20026;-77
2024/04/20 00:51:59;;;;;;;2.38;1.63;;;4.00;99.90;;;;;;7577376;19;20011;-77
2024/04/20 00:54:31;;;;;;;3.75;2.13;;;4.00;99.90;;;;;;7597193;19;20025;-78
2024/04/20 00:57:04;;;;;;;2.33;1.70;;;3.90;99.90;;;;;;7587486;19;20010;-78
2024/04/20 00:59:36;;;;;;;2.23;1.13;;;3.90;99.90;;;;;;7595013;19;20026;-77
2024/04/20 01:02:08;;;;;;;2.85;1.40;;;3.90;99.90;;;;;;7596128;19;20282;-75
2024/04/20 01:04:39;;;;;;;1.65;1.30;;;3.80;99.90;;;;;;7593524;19;21024;-73
2024/04/20 01:07:11;;;;;;;1.67;1.58;;;3.80;99.90;;;;;;7578950;19;20022;-74
2024/04/20 01:09:43;;;;;;;1.42;1.30;;;3.80;99.90;;;;;;7577776;19;20014;-76
2024/04/20 01:12:14;;;;;;;1.73;1.25;;;3.80;99.90;;;;;;7566698;19;20011;-75
2024/04/20 01:14:45;;;;;;;1.88;1.30;;;3.90;99.90;;;;;;7578058;19;20043;-76
2024/04/20 01:17:16;;;;;;;4.65;1.50;;;3.80;99.90;;;;;;7586241;19;20014;-76
2024/04/20 01:19:47;;;;;;;1.70;1.60;;;3.80;99.90;;;;;;7582865;19;20014;-76
2024/04/20 01:22:18;;;;;;;2.17;1.42;;;3.80;99.90;;;;;;7582873;19;20384;-76
2024/04/20 01:24:53;;;;;;;1.85;1.40;;;3.70;99.90;;;;;;7582761;19;20026;-74
2024/04/20 01:27:24;;;;;;;1.88;1.40;;;3.80;99.90;;;;;;7589814;19;20019;-76
2024/04/20 01:29:56;;;;;;;6.05;2.03;;;3.70;99.90;;;;;;7585516;19;20130;-76
2024/04/20 01:32:29;;;;;;;3.00;2.05;;;3.70;99.90;;;;;;7573984;19;21142;-73
2024/04/20 01:35:00;;;;;;;;;;;3.60;99.90;;;;;;7581392;19;20362;-75
2024/04/20 01:37:31;;;;;;;3.13;1.92;;;3.50;99.90;;;;;;7579941;19;20022;-75
2024/04/20 01:40:03;;;;;;;2.95;2.28;;;3.50;99.90;;;;;;7589128;19;20030;-76
2024/04/20 01:42:34;;;;;;;3.92;2.22;;;3.50;99.90;;;;;;7579455;19;20039;-75
2024/04/20 01:45:06;;;;;;;9.43;3.78;;;3.40;99.90;;;;;;7578055;19;20485;-76
2024/04/20 01:47:37;;;;;;;3.38;1.88;;;3.40;99.90;;;;;;7579564;19;20011;-75
2024/04/20 01:50:08;;;;;;;4.55;2.28;;;3.40;99.90;;;;;;7587421;19;20046;-76
2024/04/20 01:52:39;;;;;;;4.88;2.85;;;3.50;99.90;;;;;;7585494;19;20018;-76
2024/04/20 01:55:10;;;;;;;5.07;2.22;;;3.40;99.90;;;;;;7586064;19;20037;-75
2024/04/20 01:57:41;;;;;;;3.40;2.33;;;3.40;99.90;;;;;;7582317;19;20356;-75
2024/04/20 02:00:13;;;;;;;8.40;2.30;;;3.40;99.90;;;;;;7575658;19;20039;-75
2024/04/20 02:02:44;;;;;;;3.35;2.35;;;3.40;99.90;;;;;;7578531;19;20033;-75
2024/04/20 02:05:16;;;;;;;2.60;2.03;;;3.40;99.90;;;;;;7581826;19;20018;-74
2024/04/20 02:07:47;;;;;;;6.38;2.20;;;3.40;99.90;;;;;;7586401;19;20014;-76
2024/04/20 02:10:18;;;;;;;8.25;2.33;;;3.50;99.90;;;;;;7587287;19;20018;-75
2024/04/20 02:12:49;;;;;;;3.58;2.40;;;3.60;99.90;;;;;;7580545;19;20021;-74
2024/04/20 02:15:20;;;;;;;3.25;2.25;;;3.50;99.90;;;;;;7587260;19;20025;-75
2024/04/20 02:17:51;;;;;;;8.18;2.40;;;3.50;99.90;;;;;;7577374;19;20880;-75
2024/04/20 02:20:23;;;;;;;3.95;2.60;;;3.50;99.90;;;;;;7573854;19;20018;-74
2024/04/20 02:22:54;;;;;;;8.27;2.65;;;3.50;99.90;;;;;;7587335;19;20563;-74
2024/04/20 02:25:25;;;;;;;6.57;2.38;;;3.50;99.90;;;;;;7590099;19;20021;-74
2024/04/20 02:27:57;;;;;;;7.28;2.60;;;3.60;99.90;;;;;;7588598;19;20014;-76
2024/04/20 02:30:28;;;;;;;5.25;2.63;;;3.60;99.90;;;;;;7575322;19;20026;-75
2024/04/20 02:32:59;;;;;;;4.90;2.60;;;3.50;99.90;;;;;;7585835;19;20876;-75
2024/04/20 02:35:31;;;;;;;4.90;2.33;;;3.50;99.90;;;;;;7576522;19;20015;-75
2024/04/20 02:38:02;;;;;;;5.75;2.63;;;3.50;99.90;;;;;;7581223;19;20739;-75
2024/04/20 02:40:33;;;;;;;8.15;2.72;;;3.50;99.90;;;;;;7581569;19;20023;-74
2024/04/20 02:43:04;;;;;;;6.43;2.47;;;3.60;99.90;;;;;;7576749;19;20025;-74
2024/04/20 02:45:35;;;;;;;4.93;2.75;;;3.50;99.90;;;;;;7587004;19;20029;-74
2024/04/20 02:48:07;;;;;;;7.32;2.60;;;3.60;99.90;;;;;;7575265;19;20018;-74
2024/04/20 02:50:38;;;;;;;7.95;3.00;;;3.60;99.90;;;;;;7578893;19;20610;-75
2024/04/20 02:53:09;;;;;;;6.57;2.40;;;3.60;99.90;;;;;;7585309;19;20014;-74
2024/04/20 02:55:40;;;;;;;6.22;2.80;;;3.70;99.90;;;;;;7568521;19;20851;-73
2024/04/20 02:58:12;;;;;;;11.70;2.53;;;3.60;99.90;;;;;;7579239;19;20090;-76
2024/04/20 03:00:57;;;;;;;5.97;2.30;;;3.70;99.90;;;;;;7587678;19;20334;-75
2024/04/20 03:03:30;;;;;;;5.38;2.88;;;3.70;99.90;;;;;;7580506;19;20298;-76
2024/04/20 03:06:01;;;;;;;8.35;2.70;;;3.70;99.90;;;;;;7583647;19;20033;-74
2024/04/20 03:08:33;;;;;;;7.13;2.85;;;3.80;99.90;;;;;;7563380;19;20018;-76
2024/04/20 03:11:04;;;;;;;5.82;2.53;;;3.80;99.90;;;;;;7576672;19;20030;-75
2024/04/20 03:13:35;;;;;;;9.80;2.80;;;3.80;99.90;;;;;;7574083;19;20014;-75
2024/04/20 03:16:07;;;;;;;5.15;2.83;;;3.80;99.90;;;;;;7576076;19;20018;-74
2024/04/20 03:18:38;;;;;;;7.60;3.13;;;3.90;99.90;;;;;;7568790;19;20020;-76
2024/04/20 03:21:09;;;;;;;5.88;2.53;;;3.80;99.90;;;;;;7590780;19;20015;-75
2024/04/20 03:23:40;;;;;;;5.07;2.92;;;3.90;99.90;;;;;;7584642;19;20022;-75
2024/04/20 03:26:11;;;;;;;5.28;2.45;;;3.90;99.90;;;;;;7575386;19;21092;-76
2024/04/20 03:28:42;;;;;;;5.20;2.58;;;3.80;99.90;;;;;;7583489;19;20037;-75
2024/04/20 03:31:14;;;;;;;10.68;3.50;;;3.90;99.90;;;;;;7579226;19;20040;-75
2024/04/20 03:33:45;;;;;;;3.88;2.40;;;3.90;99.90;;;;;;7550287;19;20026;-75
2024/04/20 03:36:17;;;;;;;9.70;3.35;;;3.80;99.90;;;;;;7600973;19;20060;-75
2024/04/20 03:38:48;;;;;;;7.88;3.47;;;3.90;99.90;;;;;;7594076;19;20014;-75
2024/04/20 03:41:19;;;;;;;7.50;3.28;;;3.90;99.90;;;;;;7598344;19;20074;-75
2024/04/20 03:43:51;;;;;;;7.40;2.90;;;3.90;99.90;;;;;;7580546;19;20092;-74
2024/04/20 03:46:22;;;;;;;7.80;2.53;;;3.90;99.90;;;;;;7560756;19;20022;-75
2024/04/20 03:48:53;;;;;;;6.13;2.80;;;3.90;99.90;;;;;;7578959;19;20033;-74
2024/04/20 03:51:24;;;;;;;8.88;2.80;;;3.90;99.90;;;;;;7589948;19;20653;-75
2024/04/20 03:53:55;;;;;;;7.60;2.80;;;3.90;99.90;;;;;;7585912;19;20027;-75
2024/04/20 03:56:28;;;;;;;5.07;2.85;;;3.80;99.90;;;;;;7570973;19;20006;-75
2024/04/20 03:58:59;;;;;;;5.93;3.20;;;3.90;99.90;;;;;;7586646;19;20522;-74
2024/04/20 04:01:30;;;;;;;8.05;3.10;;;3.80;99.90;;;;;;7563363;19;20022;-74
2024/04/20 04:04:01;;;;;;;6.85;3.30;;;3.80;99.90;;;;;;7572912;19;20025;-73
2024/04/20 04:06:32;;;;;;;4.05;3.05;;;3.80;99.90;;;;;;7565162;19;20121;-74
2024/04/20 04:09:03;;;;;;;10.38;2.83;;;3.80;99.90;;;;;;7549636;19;20334;-74
2024/04/20 04:11:35;;;;;;;5.00;2.75;;;3.90;99.90;;;;;;7583550;19;20903;-74
2024/04/20 04:14:06;;;;;;;5.35;3.25;;;3.90;99.90;;;;;;7582474;19;20006;-74
2024/04/20 04:16:37;;;;;;;8.27;3.13;;;3.90;99.90;;;;;;7577544;19;20695;-73
2024/04/20 04:19:08;;;;;;;7.28;3.38;;;3.90;99.90;;;;;;7583467;19;22081;-73
2024/04/20 04:21:39;;;;;;;6.15;2.97;;;3.90;99.90;;;;;;7570951;19;20041;-74
2024/04/20 04:24:10;;;;;;;5.45;3.28;;;3.80;99.90;;;;;;7569567;19;21322;-74
2024/04/20 04:26:41;;;;;;;4.90;2.53;;;3.90;99.90;;;;;;7585445;19;20035;-75
2024/04/20 04:29:13;;;;;;;7.97;3.20;;;3.90;99.90;;;;;;7561412;19;20040;-75
2024/04/20 04:31:44;;;;;;;5.13;3.40;;;3.90;99.90;;;;;;7577677;19;20078;-74
2024/04/20 04:34:15;;;;;;;5.97;3.30;;;3.90;99.90;;;;;;7578487;19;20991;-75
2024/04/20 04:36:46;;;;;;;7.07;3.72;;;4.00;99.90;;;;;;7582122;19;20014;-74
2024/04/20 04:39:17;;;;;;;6.18;3.30;;;4.00;99.90;;;;;;7579557;19;20662;-74
2024/04/20 04:41:48;;;;;;;4.97;3.25;;;4.00;99.90;;;;;;7571959;19;20116;-74
2024/04/20 04:44:19;;;;;;;8.63;3.42;;;4.00;99.90;;;;;;7568542;19;20210;-75
2024/04/20 04:46:51;;;;;;;6.38;3.92;;;4.00;99.90;;;;;;7539989;19;25257;-74
2024/04/20 04:49:22;;;;;;;7.07;3.60;;;4.00;99.90;;;;;;7576658;19;20010;-73
2024/04/20 04:51:53;;;;;;;7.60;4.05;;;4.10;99.90;;;;;;7577479;19;20010;-73
2024/04/20 04:54:25;;;;;;;8.13;3.78;;;4.10;99.90;;;;;;7579145;19;20018;-74
2024/04/20 04:56:56;;;;;;;7.03;4.22;;;4.10;99.90;;;;;;7575481;19;20014;-73
2024/04/20 04:59:28;;;;;;;5.45;3.88;;;4.20;99.90;;;;;;7588471;19;20010;-75
2024/04/20 05:01:59;;;;;;;6.95;3.78;;;4.20;99.90;;;;;;7592607;19;20022;-75
2024/04/20 05:04:31;;;;;;;8.07;3.70;;;4.10;99.90;;;;;;7576463;19;20094;-74
2024/04/20 05:07:02;;;;;;;8.15;4.07;;;4.10;99.90;;;;;;7561372;19;20019;-74
2024/04/20 05:09:33;;;;;;;9.50;4.63;;;4.10;99.90;;;;;;7559433;19;20056;-74
2024/04/20 05:12:05;;;;;;;7.72;3.75;;;4.10;99.90;;;;;;7579693;19;20432;-74
2024/04/20 05:14:36;;;;;;;6.65;4.30;;;4.10;99.90;;;;;;7570919;19;20011;-74
2024/04/20 05:17:07;;;;;;;8.10;4.30;;;4.00;99.90;;;;;;7578443;19;20022;-75
2024/04/20 05:19:39;;;;;;;10.88;4.60;;;4.00;99.90;;;;;;7577620;19;20014;-74
2024/04/20 05:22:10;;;;;;;9.27;4.68;;;4.00;99.90;;;;;;7582775;19;20045;-75
2024/04/20 05:24:47;;;;;;;7.85;4.70;;;4.00;99.90;;;;;;7566681;19;20029;-74
2024/04/20 05:27:19;;;;;;;11.40;4.45;;;3.90;99.90;;;;;;7561125;19;20015;-71
2024/04/20 05:29:50;;;;;;;11.68;4.70;;;4.00;99.90;;;;;;7581846;19;20028;-72
2024/04/20 05:32:21;;;;;;;9.45;5.05;;;3.90;99.90;;;;;;7568440;19;21068;-72
2024/04/20 05:34:52;;;;;;;10.10;4.68;;;3.90;99.90;;;;;;7562378;19;20039;-72
2024/04/20 05:37:23;;;;;;;9.60;5.43;;;3.80;99.90;;;;;;7555032;19;20018;-73
2024/04/20 05:39:54;;;;;;;11.05;5.70;;;3.90;99.90;;;;;;7558379;19;20018;-73
2024/04/20 05:42:26;;;;;;;12.10;5.20;;;3.80;99.90;;;;;;7542153;19;20044;-72
2024/04/20 05:44:57;;;;;;;13.45;6.55;;;3.80;99.90;;;;;;7553073;19;20014;-72
2024/04/20 05:47:28;;;;;;;14.48;5.43;;;3.80;99.90;;;;;;7551482;19;20714;-72
2024/04/20 05:49:59;;;;;;;13.80;6.15;;;3.80;99.90;;;;;;7565775;19;20022;-73
2024/04/20 05:52:30;;;;;;;14.10;6.32;;;3.80;99.90;;;;;;7543372;19;20815;-73
2024/04/20 05:55:01;;;;;;;10.85;6.80;;;3.70;99.90;;;;;;7568414;19;20535;-73
2024/04/20 05:57:32;;;;;;;12.27;6.45;;;3.80;99.90;;;;;;7558132;19;20026;-73
2024/04/20 06:00:05;;;;;;;11.95;6.43;;;3.80;99.90;;;;;;7573438;19;20414;-72
2024/04/20 06:02:42;;;;;;;11.35;5.97;;;3.90;99.90;;;;;;7566892;19;20018;-72
2024/04/20 06:05:14;;;;;;;12.10;6.20;;;3.90;99.90;;;;;;7578112;19;20019;-75
2024/04/20 06:07:45;;;;;;;9.35;5.88;;;4.00;99.90;;;;;;7574131;19;20035;-73
2024/04/20 06:10:16;;;;;;;12.98;6.07;;;4.00;99.90;;;;;;7537498;19;21485;-73
2024/04/20 06:12:48;;;;;;;11.35;6.10;;;3.90;99.90;;;;;;7584023;19;20019;-72
2024/04/20 06:15:19;;;;;;;13.43;6.45;;;4.00;99.90;;;;;;7564827;19;20021;-73
2024/04/20 06:17:50;;;;;;;9.07;5.93;;;4.00;99.90;;;;;;7576110;19;20011;-72
2024/04/20 06:20:21;;;;;;;13.50;6.07;;;4.00;99.90;;;;;;7572484;19;20305;-73
2024/04/20 06:22:52;;;;;;;11.18;5.97;;;4.00;99.90;;;;;;7567385;19;20021;-72
2024/04/20 06:25:23;;;;;;;12.95;6.60;;;4.00;99.90;;;;;;7555496;19;20018;-72
2024/04/20 06:27:54;;;;;;;12.10;5.82;;;4.00;99.90;;;;;;7571707;19;20062;-71
2024/04/20 06:30:25;;;;;;;14.77;6.03;;;4.00;99.90;;;;;;7563175;19;20864;-72
2024/04/20 06:32:57;;;;;;;14.82;7.18;;;4.10;99.90;;;;;;7564102;19;21205;-72
2024/04/20 06:35:28;;;;;;;20.42;8.38;;;4.20;99.90;;;;;;7545533;19;20010;-72
2024/04/20 06:38:00;;;;;;;24.13;11.52;;;4.20;99.90;;;;;;7562670;19;20022;-72
2024/04/20 06:40:31;;;;;;;19.55;8.95;;;4.30;99.90;;;;;;7568330;19;20018;-73
2024/04/20 06:43:02;;;;;;;13.60;6.88;;;4.30;99.90;;;;;;7550946;19;20022;-72
2024/04/20 06:45:33;;;;;;;14.05;6.40;;;4.30;99.90;;;;;;7556387;19;20022;-73
2024/04/20 06:48:05;;;;;;;10.60;6.22;;;4.30;99.90;;;;;;7550692;19;20018;-74
2024/04/20 06:50:36;;;;;;;17.63;6.95;;;4.30;99.90;;;;;;7550778;19;20466;-73
2024/04/20 06:53:07;;;;;;;13.05;6.25;;;4.30;99.90;;;;;;7569346;19;20055;-72
2024/04/20 06:55:39;;;;;;;13.50;6.75;;;4.40;99.90;;;;;;7556693;19;20014;-73
2024/04/20 06:58:10;;;;;;;8.70;6.63;;;4.50;99.90;;;;;;7565338;19;20086;-73
2024/04/20 07:00:41;;;;;;;12.00;6.22;;;4.50;99.90;;;;;;7560818;19;21364;-72
2024/04/20 07:03:12;;;;;;;12.50;5.75;;;4.50;99.90;;;;;;7540882;19;21239;-72
2024/04/20 07:05:54;;;;;;;12.27;5.55;;;4.50;99.90;;;;;;7565239;19;21009;-72
2024/04/20 07:08:27;;;;;;;7.43;4.38;;;4.60;99.90;;;;;;7551115;19;20006;-72
2024/04/20 07:11:00;;;;;;;8.68;4.97;;;4.50;99.90;;;;;;7561779;19;20006;-72
2024/04/20 07:13:36;;;;;;;11.65;5.35;;;4.60;99.90;;;;;;7503381;19;20046;-71
2024/04/20 07:16:07;;;;;;;12.43;5.88;;;4.70;99.90;;;;;;7564583;19;20018;-73
2024/04/20 07:18:39;;;;;;;9.85;5.68;;;4.80;99.90;;;;;;7557841;19;20018;-72
2024/04/20 07:21:10;;;;;;;10.88;4.60;;;4.80;99.90;;;;;;7563651;19;20450;-72
2024/04/20 07:23:41;;;;;;;10.57;5.50;;;4.80;99.90;;;;;;7557604;19;20014;-72
2024/04/20 07:26:12;;;;;;;9.02;4.18;;;4.80;99.90;;;;;;7561108;19;20023;-72
2024/04/20 07:28:43;;;;;;;12.50;5.13;;;4.70;99.90;;;;;;7552042;19;20015;-73
2024/04/20 07:31:14;;;;;;;10.02;5.28;;;4.70;99.90;;;;;;7551303;19;20510;-73
2024/04/20 07:33:45;;;;;;;10.43;5.50;;;4.70;99.90;;;;;;7529860;19;20658;-72
2024/04/20 07:36:17;;;;;;;15.73;6.13;;;4.80;99.90;;;;;;7540327;19;20097;-72
2024/04/20 07:38:48;;;;;;;20.23;8.45;;;4.90;99.90;;;;;;7542659;19;20886;-72
2024/04/20 07:41:19;;;;;;;19.60;7.82;;;4.90;99.90;;;;;;7541285;19;21151;-71
2024/04/20 07:43:51;;;;;;;12.60;6.35;;;4.90;99.90;;;;;;7556789;19;20019;-73
2024/04/20 07:46:22;;;;;;;14.05;6.25;;;4.90;99.90;;;;;;7556209;19;20719;-72
2024/04/20 07:48:53;;;;;;;9.77;5.20;;;5.00;99.90;;;;;;7564607;19;20049;-71
2024/04/20 07:51:24;;;;;;;11.68;7.47;;;5.00;99.90;;;;;;7573560;19;20010;-71
2024/04/20 07:53:55;;;;;;;9.15;6.03;;;5.00;99.90;;;;;;7571808;19;20650;-72
2024/04/20 07:56:26;;;;;;;12.45;5.47;;;4.90;99.90;;;;;;7578101;19;20112;-72
2024/04/20 07:58:58;;;;;;;8.18;3.90;;;4.90;99.90;;;;;;7548490;19;20018;-72
2024/04/20 08:01:29;;;;;;;10.43;4.70;;;4.90;99.90;;;;;;7540323;19;20101;-72
2024/04/20 08:04:00;;;;;;;9.45;5.47;;;5.00;99.90;;;;;;7559786;19;20034;-72
2024/04/20 08:06:31;;;;;;;8.10;3.95;;;5.10;99.90;;;;;;7546660;19;20015;-72
2024/04/20 08:09:04;;;;;;;9.75;5.05;;;5.10;99.90;;;;;;7537757;19;20026;-72
2024/04/20 08:11:35;;;;;;;6.35;4.28;;;5.30;99.90;;;;;;7548456;19;20043;-73
2024/04/20 08:14:06;;;;;;;9.90;4.05;;;5.40;99.90;;;;;;7553668;19;20033;-71
2024/04/20 08:16:37;;;;;;;11.65;4.03;;;5.40;99.90;;;;;;7543798;19;20361;-73
2024/04/20 08:19:09;;;;;;;7.35;3.80;;;5.40;99.90;;;;;;7560445;19;20022;-73
2024/04/20 08:21:40;;;;;;;5.78;3.95;;;5.40;99.90;;;;;;7511145;19;20057;-72
2024/04/20 08:24:11;;;;;;;8.00;3.60;;;5.50;99.90;;;;;;7551811;19;20567;-73
2024/04/20 08:26:42;;;;;;;7.32;3.80;;;5.50;99.90;;;;;;7563295;19;20022;-72
2024/04/20 08:29:13;;;;;;;8.77;3.88;;;5.50;99.90;;;;;;7546798;19;20855;-72
2024/04/20 08:31:44;;;;;;;8.43;3.78;;;5.60;99.90;;;;;;7517953;19;20034;-72
2024/04/20 08:34:16;;;;;;;6.93;3.13;;;5.70;99.90;;;;;;7512282;19;20998;-72
2024/04/20 08:36:48;;;;;;;5.38;3.22;;;5.80;99.90;;;;;;7535819;19;20022;-72
2024/04/20 08:39:19;;;;;;;7.80;3.22;;;5.90;99.90;;;;;;7544114;19;21036;-71
2024/04/20 08:41:55;;;;;;;7.00;2.65;;;5.90;99.90;;;;;;7543105;19;20114;-74
2024/04/20 08:44:27;;;;;;;7.47;3.05;;;6.00;99.90;;;;;;7540715;19;20050;-75
2024/04/20 08:47:00;;;;;;;5.85;3.63;;;6.10;99.90;;;;;;7555972;19;20018;-74
2024/04/20 08:49:34;;;;;;;7.65;3.65;;;6.20;99.90;;;;;;7569945;19;20664;-75
2024/04/20 08:52:05;;;;;;;8.60;3.08;;;6.30;99.90;;;;;;7546671;19;20022;-74
2024/04/20 08:54:38;;;;;;;5.18;3.20;;;6.30;99.90;;;;;;7544885;19;20022;-74
2024/04/20 08:57:11;;;;;;;10.52;4.47;;;6.30;99.90;;;;;;7525094;19;20658;-75
2024/04/20 08:59:42;;;;;;;7.68;3.83;;;6.30;99.90;;;;;;7547515;19;20022;-74
2024/04/20 09:02:18;;;;;;;8.18;4.10;;;6.50;99.90;;;;;;7518578;19;20014;-74
2024/04/20 09:04:50;;;;;;;7.72;2.90;;;6.70;99.90;;;;;;7532803;19;20014;-73
2024/04/20 09:07:23;;;;;;;4.05;2.70;;;6.90;99.90;;;;;;7549698;19;20018;-73
2024/04/20 09:09:55;;;;;;;9.18;4.78;;;7.00;99.90;;;;;;7547540;19;20039;-74
2024/04/20 09:12:26;;;;;;;8.10;6.00;;;6.90;99.90;;;;;;7557107;19;20011;-74
2024/04/20 09:14:57;;;;;;;12.43;4.03;;;7.00;99.90;;;;;;7550705;19;20444;-75
2024/04/20 09:17:28;;;;;;;5.57;3.53;;;7.10;99.90;;;;;;7554843;19;21429;-75
2024/04/20 09:20:01;;;;;;;6.63;3.63;;;7.30;99.90;;;;;;7546767;19;21748;-74
2024/04/20 09:22:32;;;;;;;6.00;3.63;;;7.50;99.90;;;;;;7561886;19;20022;-72
2024/04/20 09:25:05;;;;;;;5.40;2.35;;;7.70;99.90;;;;;;7572174;19;20018;-74
2024/04/20 09:27:36;;;;;;;5.35;3.08;;;7.60;99.90;;;;;;7547035;19;20109;-73
2024/04/20 09:30:10;;;;;;;5.13;2.63;;;7.30;99.90;;;;;;7535506;19;20036;-72
2024/04/20 09:32:45;;;;;;;5.90;2.83;;;7.20;99.90;;;;;;7517763;19;20806;-73
2024/04/20 09:35:18;;;;;;;4.95;2.67;;;7.00;99.90;;;;;;7572388;19;20027;-72
2024/04/20 09:37:52;;;;;;;2.67;2.10;;;6.90;99.90;;;;;;7573464;19;20040;-73
2024/04/20 09:40:23;;;;;;;3.90;2.40;;;6.90;99.90;;;;;;7549467;19;20035;-74
2024/04/20 09:42:57;;;;;;;3.25;2.55;;;7.00;99.90;;;;;;7532164;19;20018;-73
2024/04/20 09:45:32;;;;;;;4.47;3.30;;;7.00;99.90;;;;;;7521958;19;20045;-72
2024/04/20 09:48:06;;;;;;;5.90;2.88;;;6.90;99.90;;;;;;7531890;19;20039;-72
2024/04/20 09:50:41;;;;;;;4.88;2.30;;;7.10;99.90;;;;;;7538128;19;20073;-73
2024/04/20 09:53:12;;;;;;;3.53;2.13;;;6.90;99.90;;;;;;7524478;19;20097;-73
2024/04/20 09:55:47;;;;;;;3.70;1.75;;;7.10;99.90;;;;;;7537387;19;20024;-73
2024/04/20 09:58:20;;;;;;;4.35;2.47;;;7.20;99.90;;;;;;7562873;19;20642;-73
2024/04/20 10:00:52;;;;;;;3.50;2.60;;;7.40;99.90;;;;;;7554585;19;20023;-72
2024/04/20 10:03:24;;;;;;;6.30;2.67;;;7.60;99.90;;;;;;7547472;19;20018;-71
2024/04/20 10:05:56;;;;;;;9.07;3.72;;;7.70;99.90;;;;;;7548316;19;20018;-73
2024/04/20 10:08:28;;;;;;;7.68;2.63;;;7.90;99.90;;;;;;7570357;19;21004;-72
2024/04/20 10:11:00;;;;;;;4.72;2.50;;;7.90;99.90;;;;;;7545673;19;20071;-72
2024/04/20 10:13:33;;;;;;;2.67;2.40;;;7.80;99.90;;;;;;7551049;19;20010;-73
2024/04/20 10:16:06;;;;;;;4.53;2.60;;;7.80;99.90;;;;;;7543148;19;20014;-73
2024/04/20 10:18:37;;;;;;;4.00;2.67;;;8.00;99.90;;;;;;7544486;19;20466;-72
2024/04/20 10:21:14;;;;;;;7.50;3.03;;;8.20;99.90;;;;;;7566140;19;20014;-74
2024/04/20 10:23:46;;;;;;;5.90;3.08;;;8.20;99.90;;;;;;7574139;19;20274;-73
2024/04/20 10:26:30;;;;;;;5.53;3.17;;;8.30;99.90;;;;;;7564075;19;20033;-74
2024/04/20 10:29:08;;;;;;;5.80;3.22;;;8.20;99.90;;;;;;7553757;19;20023;-74
2024/04/20 10:31:40;;;;;;;3.72;2.47;;;7.90;99.90;;;;;;7528836;19;20694;-73
2024/04/20 10:34:24;;;;;;;4.90;2.72;;;7.40;99.90;;;;;;7528358;19;20742;-74
2024/04/20 10:36:59;;;;;;;3.63;3.08;;;7.00;99.90;;;;;;7536810;19;20057;-74
2024/04/20 10:39:31;;;;;;;5.50;3.03;;;6.90;99.90;;;;;;7562823;19;20595;-73
2024/04/20 10:42:10;;;;;;;6.68;3.88;;;6.90;99.90;;;;;;7589996;19;20018;-73
2024/04/20 10:44:41;;;;;;;6.03;3.20;;;6.80;99.90;;;;;;7550524;19;21177;-73
2024/04/20 10:47:19;;;;;;;4.10;3.28;;;6.80;99.90;;;;;;7522287;19;20458;-73
2024/04/20 10:49:50;;;;;;;4.03;2.72;;;6.80;99.90;;;;;;7554040;19;20031;-74
2024/04/20 10:52:21;;;;;;;4.35;2.70;;;6.90;99.90;;;;;;7552672;19;20020;-74
2024/04/20 10:54:53;;;;;;;2.60;2.20;;;6.90;99.90;;;;;;7559480;19;20022;-72
2024/04/20 10:57:28;;;;;;;2.63;2.10;;;6.90;99.90;;;;;;7561877;19;20047;-73
2024/04/20 10:59:59;;;;;;;4.55;2.60;;;7.00;99.90;;;;;;7533112;19;20615;-73
2024/04/20 11:02:30;;;;;;;3.60;3.15;;;7.20;99.90;;;;;;7559174;19;20017;-73
2024/04/20 11:05:06;;;;;;;4.20;3.00;;;7.30;99.90;;;;;;7525888;19;20022;-74
2024/04/20 11:07:37;;;;;;;3.28;2.53;;;7.30;99.90;;;;;;7535578;19;20028;-75
2024/04/20 11:10:16;;;;;;;5.20;2.33;;;7.40;99.90;;;;;;7545608;19;20019;-73
2024/04/20 11:12:57;;;;;;;7.03;2.20;;;7.40;99.90;;;;;;7545342;19;20043;-74
2024/04/20 11:15:30;;;;;;;2.90;2.60;;;7.40;99.90;;;;;;7531176;19;20608;-72
2024/04/20 11:18:01;;;;;;;2.28;1.83;;;7.40;99.90;;;;;;7545123;19;20029;-73
2024/04/20 11:20:35;;;;;;;4.47;2.30;;;7.70;99.90;;;;;;7566710;19;20086;-72
2024/04/20 11:23:06;;;;;;;;;;;7.90;99.90;;;;;;7555328;19;20022;-73
2024/04/20 11:25:37;;;;;;;7.72;2.67;;;8.00;99.90;;;;;;7573455;19;19926;-72
2024/04/20 11:28:09;;;;;;;4.38;2.42;;;8.10;99.90;;;;;;7589371;19;21075;-73
2024/04/20 11:30:40;;;;;;;6.30;2.35;;;8.20;99.90;;;;;;7575735;19;20018;-73
2024/04/20 11:33:12;;;;;;;3.28;2.80;;;8.20;99.90;;;;;;7557999;19;20022;-74
2024/04/20 11:35:48;;;;;;;3.00;2.40;;;8.00;99.90;;;;;;7549311;19;20015;-72
2024/04/20 11:38:21;;;;;;;5.20;2.83;;;8.00;99.90;;;;;;7564543;19;20011;-73
2024/04/20 11:40:52;;;;;;;4.78;2.88;;;8.00;99.90;;;;;;7561418;19;20082;-73
2024/04/20 11:43:24;;;;;;;6.00;2.42;;;8.00;99.90;;;;;;7553226;19;20049;-73
2024/04/20 11:45:56;;;;;;;4.05;2.60;;;7.90;99.90;;;;;;7545477;19;20800;-73
2024/04/20 11:48:29;;;;;;;3.72;2.75;;;8.00;99.90;;;;;;7564680;19;20010;-72
2024/04/20 11:51:25;;;;;;;6.33;2.67;;;8.40;99.90;;;;;;7574701;19;20078;-72
2024/04/20 11:54:18;;;;;;;2.97;1.75;;;8.70;99.90;;;;;;7565329;19;20818;-72
2024/04/20 11:56:52;;;;;;;4.63;2.13;;;9.10;99.90;;;;;;7559337;19;20018;-73
2024/04/20 11:59:24;;;;;;;5.60;1.83;;;9.40;99.90;;;;;;7562123;19;20021;-73
2024/04/20 12:01:55;;;;;;;2.97;1.60;;;9.40;99.90;;;;;;7571792;19;20047;-72
2024/04/20 12:04:27;;;;;;;2.05;1.50;;;9.80;99.90;;;;;;7549940;19;20006;-72
2024/04/20 12:06:58;;;;;;;2.50;1.23;;;10.10;99.90;;;;;;7554233;19;20007;-72
2024/04/20 12:09:29;;;;;;;1.48;1.38;;;10.20;99.90;;;;;;7564352;19;20894;-73
2024/04/20 12:12:00;;;;;;;4.53;1.73;;;10.10;98.80;;;;;;7562748;19;20017;-72
2024/04/20 12:14:31;;;;;;;3.33;1.88;;;10.30;99.90;;;;;;7549829;19;20023;-71
2024/04/20 12:17:02;;;;;;;3.55;1.88;;;10.70;99.90;;;;;;7538784;19;20988;-73
2024/04/20 12:19:33;;;;;;;3.72;2.05;;;11.10;99.90;;;;;;7557723;19;20022;-72
2024/04/20 12:22:04;;;;;;;5.13;2.70;;;11.00;99.90;;;;;;7551475;19;20031;-71
2024/04/20 12:24:36;;;;;;;4.63;1.73;;;10.90;99.90;;;;;;7526566;19;20018;-73
2024/04/20 12:27:16;;;;;;;2.08;1.27;;;10.20;99.90;;;;;;7541674;19;20018;-82
2024/04/20 12:29:50;;;;;;;4.55;1.50;;;9.70;99.90;;;;;;7556271;19;20031;-78
2024/04/20 12:32:38;;;;;;;2.72;1.95;;;9.00;99.90;;;;;;7556595;19;20014;-81
2024/04/20 12:35:42;;;;;;;2.85;1.90;;;8.40;99.90;;;;;;7535071;19;20012;-81
2024/04/20 12:38:29;;;;;;;2.83;1.70;;;8.00;99.90;;;;;;7553035;19;20063;-81
2024/04/20 12:41:08;;;;;;;3.72;2.08;;;7.80;99.90;;;;;;7533025;19;20040;-83
2024/04/20 12:43:43;;;;;;;2.33;1.83;;;7.90;99.90;;;;;;7555533;19;20019;-80
2024/04/20 12:46:22;;;;;;;4.75;2.08;;;8.20;99.90;;;;;;7534707;19;22097;-82
2024/04/20 12:48:53;;;;;;;2.88;2.30;;;8.80;99.90;;;;;;7539822;19;20010;-80
2024/04/20 12:51:24;;;;;;;2.45;1.98;;;9.20;99.90;;;;;;7568839;19;20052;-79
2024/04/20 12:53:56;;;;;;;6.15;2.15;;;9.60;99.90;;;;;;7576929;19;20010;-80
2024/04/20 12:56:28;;;;;;;4.55;2.55;;;10.00;99.90;;;;;;7588937;19;20018;-78
2024/04/20 12:59:00;;;;;;;3.17;1.95;;;10.10;99.90;;;;;;7577102;19;20014;-80
2024/04/20 13:01:31;;;;;;;3.22;1.92;;;10.50;99.90;;;;;;7577540;19;20014;-80
2024/04/20 13:04:03;;;;;;;3.50;1.40;;;10.60;99.60;;;;;;7589493;19;20019;-81
2024/04/20 13:06:38;;;;;;;2.38;1.83;;;10.80;98.60;;;;;;7586854;19;20029;-78
2024/04/20 13:09:09;;;;;;;2.63;1.60;;;11.10;97.50;;;;;;7562398;19;20016;-81
2024/04/20 13:11:41;;;;;;;2.92;2.03;;;11.10;95.90;;;;;;7575563;19;20019;-83
2024/04/20 13:14:13;;;;;;;3.00;2.13;;;11.50;98.10;;;;;;7585099;19;20148;-83
2024/04/20 13:16:48;;;;;;;10.38;2.10;;;11.80;97.70;;;;;;7581517;19;20086;-81
2024/04/20 13:22:35;;;;;;;4.43;3.17;;;11.90;95.00;;;;;;7598969;19;20483;-82
2024/04/20 13:25:06;;;;;;;4.97;2.70;;;11.70;95.40;;;;;;7601968;19;20007;-82